sensor_id;sensor_type;location;lat;lon;timestamp;temperature;humidity
52387;DHT22;38317;53.084;6.960;2022-10-16T00:01:14;12.40;99.90
52387;DHT22;38317;53.084;6.960;2022-10-16T00:03:41;12.40;99.90
52387;DHT22;38317;53.084;6.960;2022-10-16T00:06:08;12.40;99.90
52387;DHT22;38317;53.084;6.960;2022-10-16T00:08:34;12.40;99.90
52387;DHT22;38317;53.084;6.960;2022-10-16T00:11:06;12.40;99.90
52387;DHT22;38317;53.084;6.960;2022-10-16T00:13:34;12.40;99.90
52387;DHT22;38317;53.084;6.960;2022-10-16T00:16:00;12.40;99.90
52387;DHT22;38317;53.084;6.960;2022-10-16T00:18:28;12.40;99.90
52387;DHT22;38317;53.084;6.960;2022-10-16T00:20:54;12.40;99.90
52387;DHT22;38317;53.084;6.960;2022-10-16T00:23:20;12.40;99.90
52387;DHT22;38317;53.084;6.960;2022-10-16T00:25:55;12.40;99.90
52387;DHT22;38317;53.084;6.960;2022-10-16T00:28:21;12.50;99.90
52387;DHT22;38317;53.084;6.960;2022-10-16T00:30:47;12.50;99.90
52387;DHT22;38317;53.084;6.960;2022-10-16T00:33:12;12.40;99.90
52387;DHT22;38317;53.084;6.960;2022-10-16T00:35:38;12.50;99.90
52387;DHT22;38317;53.084;6.960;2022-10-16T00:38:04;12.40;99.90
52387;DHT22;38317;53.084;6.960;2022-10-16T00:40:29;12.40;99.90
52387;DHT22;38317;53.084;6.960;2022-10-16T00:42:56;12.40;99.90
52387;DHT22;38317;53.084;6.960;2022-10-16T00:45:22;12.40;99.90
52387;DHT22;38317;53.084;6.960;2022-10-16T00:47:48;12.40;99.90
52387;DHT22;38317;53.084;6.960;2022-10-16T00:50:28;12.40;99.90
52387;DHT22;38317;53.084;6.960;2022-10-16T00:52:56;12.40;99.90
52387;DHT22;38317;53.084;6.960;2022-10-16T00:55:22;12.40;99.90
52387;DHT22;38317;53.084;6.960;2022-10-16T00:57:50;12.40;99.90
52387;DHT22;38317;53.084;6.960;2022-10-16T01:00:26;12.40;99.90
52387;DHT22;38317;53.084;6.960;2022-10-16T01:02:57;12.30;99.90
52387;DHT22;38317;53.084;6.960;2022-10-16T01:05:26;12.40;99.90
52387;DHT22;38317;53.084;6.960;2022-10-16T01:12:57;12.30;99.90
52387;DHT22;38317;53.084;6.960;2022-10-16T01:15:30;12.30;99.90
52387;DHT22;38317;53.084;6.960;2022-10-16T01:18:11;12.30;99.90
52387;DHT22;38317;53.084;6.960;2022-10-16T01:20:47;12.30;99.90
52387;DHT22;38317;53.084;6.960;2022-10-16T01:28:34;12.30;99.90
52387;DHT22;38317;53.084;6.960;2022-10-16T01:31:02;12.40;99.90
52387;DHT22;38317;53.084;6.960;2022-10-16T01:33:46;12.30;99.90
52387;DHT22;38317;53.084;6.960;2022-10-16T01:36:21;12.30;99.90
52387;DHT22;38317;53.084;6.960;2022-10-16T01:38:51;12.30;99.90
52387;DHT22;38317;53.084;6.960;2022-10-16T01:41:22;12.30;99.90
52387;DHT22;38317;53.084;6.960;2022-10-16T01:43:58;12.30;99.90
52387;DHT22;38317;53.084;6.960;2022-10-16T01:46:27;12.30;99.90
52387;DHT22;38317;53.084;6.960;2022-10-16T01:48:54;12.30;99.90
52387;DHT22;38317;53.084;6.960;2022-10-16T01:51:21;12.20;99.90
52387;DHT22;38317;53.084;6.960;2022-10-16T01:53:52;12.20;99.90
52387;DHT22;38317;53.084;6.960;2022-10-16T01:56:19;12.20;99.90
52387;DHT22;38317;53.084;6.960;2022-10-16T01:59:13;12.20;99.90
52387;DHT22;38317;53.084;6.960;2022-10-16T02:01:43;12.20;99.90
52387;DHT22;38317;53.084;6.960;2022-10-16T02:04:20;12.20;99.90
52387;DHT22;38317;53.084;6.960;2022-10-16T02:06:49;12.20;99.90
52387;DHT22;38317;53.084;6.960;2022-10-16T02:09:18;12.20;99.90
52387;DHT22;38317;53.084;6.960;2022-10-16T02:11:44;12.20;99.90
52387;DHT22;38317;53.084;6.960;2022-10-16T02:14:11;12.20;99.90
52387;DHT22;38317;53.084;6.960;2022-10-16T02:16:45;12.20;99.90
52387;DHT22;38317;53.084;6.960;2022-10-16T02:19:13;12.30;99.90
52387;DHT22;38317;53.084;6.960;2022-10-16T02:21:44;12.30;99.90
52387;DHT22;38317;53.084;6.960;2022-10-16T02:26:57;12.30;99.90
52387;DHT22;38317;53.084;6.960;2022-10-16T02:29:26;12.30;99.90
52387;DHT22;38317;53.084;6.960;2022-10-16T02:32:03;12.30;99.90
52387;DHT22;38317;53.084;6.960;2022-10-16T02:34:32;12.30;99.90
52387;DHT22;38317;53.084;6.960;2022-10-16T02:37:00;12.30;99.90
52387;DHT22;38317;53.084;6.960;2022-10-16T02:39:28;12.30;99.90
52387;DHT22;38317;53.084;6.960;2022-10-16T02:41:54;12.40;99.90
52387;DHT22;38317;53.084;6.960;2022-10-16T02:44:20;12.40;99.90
52387;DHT22;38317;53.084;6.960;2022-10-16T02:46:46;12.40;99.90
52387;DHT22;38317;53.084;6.960;2022-10-16T02:49:11;12.40;99.90
52387;DHT22;38317;53.084;6.960;2022-10-16T02:51:37;12.50;99.90
52387;DHT22;38317;53.084;6.960;2022-10-16T02:54:03;12.50;99.90
52387;DHT22;38317;53.084;6.960;2022-10-16T02:56:29;12.50;99.90
52387;DHT22;38317;53.084;6.960;2022-10-16T02:58:56;12.50;99.90
52387;DHT22;38317;53.084;6.960;2022-10-16T03:01:22;12.50;99.90
52387;DHT22;38317;53.084;6.960;2022-10-16T03:03:48;12.50;99.90
52387;DHT22;38317;53.084;6.960;2022-10-16T03:06:14;12.60;99.90
52387;DHT22;38317;53.084;6.960;2022-10-16T03:08:39;12.50;99.90
52387;DHT22;38317;53.084;6.960;2022-10-16T03:11:05;12.50;99.90
52387;DHT22;38317;53.084;6.960;2022-10-16T03:13:31;12.50;99.90
52387;DHT22;38317;53.084;6.960;2022-10-16T03:15:57;12.60;99.90
52387;DHT22;38317;53.084;6.960;2022-10-16T03:18:22;12.60;99.90
52387;DHT22;38317;53.084;6.960;2022-10-16T03:20:48;12.50;99.90
52387;DHT22;38317;53.084;6.960;2022-10-16T03:23:14;12.60;99.90
52387;DHT22;38317;53.084;6.960;2022-10-16T03:25:40;12.50;99.90
52387;DHT22;38317;53.084;6.960;2022-10-16T03:28:05;12.60;99.90
52387;DHT22;38317;53.084;6.960;2022-10-16T03:30:31;12.60;99.90
52387;DHT22;38317;53.084;6.960;2022-10-16T03:32:57;12.60;99.90
52387;DHT22;38317;53.084;6.960;2022-10-16T03:35:23;12.60;99.90
52387;DHT22;38317;53.084;6.960;2022-10-16T03:37:50;12.60;99.90
52387;DHT22;38317;53.084;6.960;2022-10-16T03:40:16;12.60;99.90
52387;DHT22;38317;53.084;6.960;2022-10-16T03:42:43;12.70;99.90
52387;DHT22;38317;53.084;6.960;2022-10-16T03:45:10;12.70;99.90
52387;DHT22;38317;53.084;6.960;2022-10-16T03:47:35;12.70;99.90
52387;DHT22;38317;53.084;6.960;2022-10-16T03:50:01;12.70;99.90
52387;DHT22;38317;53.084;6.960;2022-10-16T03:52:27;12.60;99.90
52387;DHT22;38317;53.084;6.960;2022-10-16T03:54:53;12.60;99.90
52387;DHT22;38317;53.084;6.960;2022-10-16T03:57:19;12.60;99.90
52387;DHT22;38317;53.084;6.960;2022-10-16T03:59:46;12.60;99.90
52387;DHT22;38317;53.084;6.960;2022-10-16T04:02:12;12.60;99.90
52387;DHT22;38317;53.084;6.960;2022-10-16T04:04:38;12.60;99.90
52387;DHT22;38317;53.084;6.960;2022-10-16T04:07:04;12.60;99.90
52387;DHT22;38317;53.084;6.960;2022-10-16T04:09:30;12.60;99.90
52387;DHT22;38317;53.084;6.960;2022-10-16T04:11:55;12.60;99.90
52387;DHT22;38317;53.084;6.960;2022-10-16T04:14:21;12.60;99.90
52387;DHT22;38317;53.084;6.960;2022-10-16T04:16:47;12.50;99.90
52387;DHT22;38317;53.084;6.960;2022-10-16T04:19:13;12.50;99.90
52387;DHT22;38317;53.084;6.960;2022-10-16T04:21:39;12.50;99.90
52387;DHT22;38317;53.084;6.960;2022-10-16T04:24:05;12.50;99.90
52387;DHT22;38317;53.084;6.960;2022-10-16T04:26:30;12.50;99.90
52387;DHT22;38317;53.084;6.960;2022-10-16T04:28:56;12.40;99.90
52387;DHT22;38317;53.084;6.960;2022-10-16T04:31:22;12.40;99.90
52387;DHT22;38317;53.084;6.960;2022-10-16T04:33:48;12.40;99.90
52387;DHT22;38317;53.084;6.960;2022-10-16T04:36:13;12.40;99.90
52387;DHT22;38317;53.084;6.960;2022-10-16T04:38:39;12.40;99.90
52387;DHT22;38317;53.084;6.960;2022-10-16T04:41:06;12.30;99.90
52387;DHT22;38317;53.084;6.960;2022-10-16T04:43:32;12.40;99.90
52387;DHT22;38317;53.084;6.960;2022-10-16T04:45:58;12.40;99.90
52387;DHT22;38317;53.084;6.960;2022-10-16T04:48:24;12.40;99.90
52387;DHT22;38317;53.084;6.960;2022-10-16T04:50:49;12.40;99.90
52387;DHT22;38317;53.084;6.960;2022-10-16T04:53:15;12.40;99.90
52387;DHT22;38317;53.084;6.960;2022-10-16T04:55:41;12.40;99.90
52387;DHT22;38317;53.084;6.960;2022-10-16T04:58:07;12.40;99.90
52387;DHT22;38317;53.084;6.960;2022-10-16T05:00:34;12.40;99.90
52387;DHT22;38317;53.084;6.960;2022-10-16T05:03:00;12.50;99.90
52387;DHT22;38317;53.084;6.960;2022-10-16T05:05:27;12.50;99.90
52387;DHT22;38317;53.084;6.960;2022-10-16T05:07:53;12.50;99.90
52387;DHT22;38317;53.084;6.960;2022-10-16T05:10:19;12.50;99.90
52387;DHT22;38317;53.084;6.960;2022-10-16T05:12:45;12.60;99.90
52387;DHT22;38317;53.084;6.960;2022-10-16T05:15:11;12.50;99.90
52387;DHT22;38317;53.084;6.960;2022-10-16T05:17:37;12.50;99.90
52387;DHT22;38317;53.084;6.960;2022-10-16T05:20:04;12.60;99.90
52387;DHT22;38317;53.084;6.960;2022-10-16T05:22:30;12.50;99.90
52387;DHT22;38317;53.084;6.960;2022-10-16T05:24:55;12.50;99.90
52387;DHT22;38317;53.084;6.960;2022-10-16T05:27:21;12.50;99.90
52387;DHT22;38317;53.084;6.960;2022-10-16T05:29:48;12.50;99.90
52387;DHT22;38317;53.084;6.960;2022-10-16T05:32:16;12.50;99.90
52387;DHT22;38317;53.084;6.960;2022-10-16T05:34:42;12.60;99.90
52387;DHT22;38317;53.084;6.960;2022-10-16T05:37:08;12.60;99.90
52387;DHT22;38317;53.084;6.960;2022-10-16T05:39:34;12.50;99.90
52387;DHT22;38317;53.084;6.960;2022-10-16T05:42:00;12.50;99.90
52387;DHT22;38317;53.084;6.960;2022-10-16T05:44:26;12.60;99.90
52387;DHT22;38317;53.084;6.960;2022-10-16T05:46:51;12.60;99.90
52387;DHT22;38317;53.084;6.960;2022-10-16T05:49:17;12.60;99.90
52387;DHT22;38317;53.084;6.960;2022-10-16T05:51:43;12.60;99.90
52387;DHT22;38317;53.084;6.960;2022-10-16T05:54:08;12.60;99.90
52387;DHT22;38317;53.084;6.960;2022-10-16T05:56:34;12.70;99.90
52387;DHT22;38317;53.084;6.960;2022-10-16T05:59:00;12.70;99.90
52387;DHT22;38317;53.084;6.960;2022-10-16T06:01:26;12.70;99.90
52387;DHT22;38317;53.084;6.960;2022-10-16T06:03:52;12.70;99.90
52387;DHT22;38317;53.084;6.960;2022-10-16T06:06:21;12.70;99.90
52387;DHT22;38317;53.084;6.960;2022-10-16T06:08:49;12.70;99.90
52387;DHT22;38317;53.084;6.960;2022-10-16T06:11:17;12.70;99.90
52387;DHT22;38317;53.084;6.960;2022-10-16T06:13:44;12.70;99.90
52387;DHT22;38317;53.084;6.960;2022-10-16T06:16:12;12.70;99.90
52387;DHT22;38317;53.084;6.960;2022-10-16T06:18:38;12.70;99.90
52387;DHT22;38317;53.084;6.960;2022-10-16T06:21:13;12.80;99.90
52387;DHT22;38317;53.084;6.960;2022-10-16T06:23:39;12.80;99.90
52387;DHT22;38317;53.084;6.960;2022-10-16T06:26:10;12.80;99.90
52387;DHT22;38317;53.084;6.960;2022-10-16T06:28:37;12.80;99.90
52387;DHT22;38317;53.084;6.960;2022-10-16T06:31:04;12.80;99.90
52387;DHT22;38317;53.084;6.960;2022-10-16T06:33:30;12.90;99.90
52387;DHT22;38317;53.084;6.960;2022-10-16T06:36:14;12.90;99.90
52387;DHT22;38317;53.084;6.960;2022-10-16T06:38:40;12.90;99.90
52387;DHT22;38317;53.084;6.960;2022-10-16T06:41:07;12.90;99.90
52387;DHT22;38317;53.084;6.960;2022-10-16T06:43:33;12.90;99.90
52387;DHT22;38317;53.084;6.960;2022-10-16T06:46:04;12.90;99.90
52387;DHT22;38317;53.084;6.960;2022-10-16T06:48:30;12.90;99.90
52387;DHT22;38317;53.084;6.960;2022-10-16T06:51:02;12.90;99.90
52387;DHT22;38317;53.084;6.960;2022-10-16T06:53:30;12.90;99.90
52387;DHT22;38317;53.084;6.960;2022-10-16T06:55:56;12.90;99.90
52387;DHT22;38317;53.084;6.960;2022-10-16T06:58:23;12.80;99.90
52387;DHT22;38317;53.084;6.960;2022-10-16T07:00:49;12.80;99.90
52387;DHT22;38317;53.084;6.960;2022-10-16T07:03:20;12.90;99.90
52387;DHT22;38317;53.084;6.960;2022-10-16T07:05:46;12.90;99.90
52387;DHT22;38317;53.084;6.960;2022-10-16T07:08:12;12.90;99.90
52387;DHT22;38317;53.084;6.960;2022-10-16T07:10:38;12.90;99.90
52387;DHT22;38317;53.084;6.960;2022-10-16T07:13:03;12.90;99.90
52387;DHT22;38317;53.084;6.960;2022-10-16T07:15:29;13.00;99.90
52387;DHT22;38317;53.084;6.960;2022-10-16T07:17:55;12.90;99.90
52387;DHT22;38317;53.084;6.960;2022-10-16T07:20:21;13.00;99.90
52387;DHT22;38317;53.084;6.960;2022-10-16T07:22:46;13.00;99.90
52387;DHT22;38317;53.084;6.960;2022-10-16T07:25:12;13.10;99.90
52387;DHT22;38317;53.084;6.960;2022-10-16T07:27:38;13.00;99.90
52387;DHT22;38317;53.084;6.960;2022-10-16T07:30:04;13.00;99.90
52387;DHT22;38317;53.084;6.960;2022-10-16T07:32:31;13.10;99.90
52387;DHT22;38317;53.084;6.960;2022-10-16T07:34:57;13.10;99.90
52387;DHT22;38317;53.084;6.960;2022-10-16T07:37:22;13.20;99.90
52387;DHT22;38317;53.084;6.960;2022-10-16T07:39:48;13.20;99.90
52387;DHT22;38317;53.084;6.960;2022-10-16T07:42:14;13.20;99.90
52387;DHT22;38317;53.084;6.960;2022-10-16T07:44:40;13.20;99.90
52387;DHT22;38317;53.084;6.960;2022-10-16T07:47:06;13.20;99.90
52387;DHT22;38317;53.084;6.960;2022-10-16T07:49:32;13.30;99.90
52387;DHT22;38317;53.084;6.960;2022-10-16T07:51:58;13.30;99.90
52387;DHT22;38317;53.084;6.960;2022-10-16T07:54:23;13.30;99.90
52387;DHT22;38317;53.084;6.960;2022-10-16T07:56:49;13.40;99.90
52387;DHT22;38317;53.084;6.960;2022-10-16T07:59:15;13.50;99.90
52387;DHT22;38317;53.084;6.960;2022-10-16T08:01:41;13.40;99.90
52387;DHT22;38317;53.084;6.960;2022-10-16T08:04:10;13.50;99.90
52387;DHT22;38317;53.084;6.960;2022-10-16T08:06:38;13.60;99.90
52387;DHT22;38317;53.084;6.960;2022-10-16T08:09:05;13.60;99.90
52387;DHT22;38317;53.084;6.960;2022-10-16T08:11:31;13.60;99.90
52387;DHT22;38317;53.084;6.960;2022-10-16T08:13:57;13.60;99.90
52387;DHT22;38317;53.084;6.960;2022-10-16T08:16:22;13.60;99.90
52387;DHT22;38317;53.084;6.960;2022-10-16T08:18:48;13.70;99.90
52387;DHT22;38317;53.084;6.960;2022-10-16T08:21:19;13.70;99.90
52387;DHT22;38317;53.084;6.960;2022-10-16T08:23:45;13.70;99.90
52387;DHT22;38317;53.084;6.960;2022-10-16T08:26:11;13.70;99.90
52387;DHT22;38317;53.084;6.960;2022-10-16T08:28:37;13.70;99.90
52387;DHT22;38317;53.084;6.960;2022-10-16T08:31:12;13.70;99.90
52387;DHT22;38317;53.084;6.960;2022-10-16T08:33:39;13.70;99.90
52387;DHT22;38317;53.084;6.960;2022-10-16T08:36:06;13.80;99.90
52387;DHT22;38317;53.084;6.960;2022-10-16T08:38:32;13.80;99.90
52387;DHT22;38317;53.084;6.960;2022-10-16T08:47:07;13.90;99.90
52387;DHT22;38317;53.084;6.960;2022-10-16T08:49:39;13.90;99.90
52387;DHT22;38317;53.084;6.960;2022-10-16T08:52:11;13.90;99.90
52387;DHT22;38317;53.084;6.960;2022-10-16T08:54:45;13.90;99.90
52387;DHT22;38317;53.084;6.960;2022-10-16T08:57:20;13.90;99.90
52387;DHT22;38317;53.084;6.960;2022-10-16T08:59:46;13.90;99.90
52387;DHT22;38317;53.084;6.960;2022-10-16T09:05:02;14.10;99.90
52387;DHT22;38317;53.084;6.960;2022-10-16T09:07:32;14.30;99.90
52387;DHT22;38317;53.084;6.960;2022-10-16T09:10:28;14.30;99.90
52387;DHT22;38317;53.084;6.960;2022-10-16T09:13:21;14.40;99.90
52387;DHT22;38317;53.084;6.960;2022-10-16T09:18:26;14.40;99.90
52387;DHT22;38317;53.084;6.960;2022-10-16T09:21:14;14.40;99.90
52387;DHT22;38317;53.084;6.960;2022-10-16T09:23:41;14.40;99.90
52387;DHT22;38317;53.084;6.960;2022-10-16T09:26:12;14.50;99.90
52387;DHT22;38317;53.084;6.960;2022-10-16T09:28:38;14.50;99.90
52387;DHT22;38317;53.084;6.960;2022-10-16T09:31:04;14.60;99.90
52387;DHT22;38317;53.084;6.960;2022-10-16T09:33:33;14.70;99.90
52387;DHT22;38317;53.084;6.960;2022-10-16T09:36:03;14.80;99.90
52387;DHT22;38317;53.084;6.960;2022-10-16T09:38:33;15.00;99.90
52387;DHT22;38317;53.084;6.960;2022-10-16T09:43:57;15.20;99.90
52387;DHT22;38317;53.084;6.960;2022-10-16T09:46:31;15.40;99.90
52387;DHT22;38317;53.084;6.960;2022-10-16T09:49:00;15.50;99.90
52387;DHT22;38317;53.084;6.960;2022-10-16T09:51:34;15.60;99.90
52387;DHT22;38317;53.084;6.960;2022-10-16T09:56:36;15.80;99.90
52387;DHT22;38317;53.084;6.960;2022-10-16T09:59:13;15.70;99.90
52387;DHT22;38317;53.084;6.960;2022-10-16T10:01:50;15.90;99.90
52387;DHT22;38317;53.084;6.960;2022-10-16T10:04:22;15.90;99.90
52387;DHT22;38317;53.084;6.960;2022-10-16T10:06:53;16.10;99.90
52387;DHT22;38317;53.084;6.960;2022-10-16T10:14:47;16.20;99.90
52387;DHT22;38317;53.084;6.960;2022-10-16T10:22:40;16.30;99.90
52387;DHT22;38317;53.084;6.960;2022-10-16T10:38:41;16.40;99.90
52387;DHT22;38317;53.084;6.960;2022-10-16T10:46:35;16.30;99.90
52387;DHT22;38317;53.084;6.960;2022-10-16T10:51:39;16.20;99.90
52387;DHT22;38317;53.084;6.960;2022-10-16T10:54:16;16.20;99.90
52387;DHT22;38317;53.084;6.960;2022-10-16T11:02:21;16.40;99.90
52387;DHT22;38317;53.084;6.960;2022-10-16T11:10:31;16.90;99.90
52387;DHT22;38317;53.084;6.960;2022-10-16T11:13:28;17.10;99.90
52387;DHT22;38317;53.084;6.960;2022-10-16T11:15:59;17.10;99.90
52387;DHT22;38317;53.084;6.960;2022-10-16T11:21:30;17.20;99.90
52387;DHT22;38317;53.084;6.960;2022-10-16T11:24:04;17.30;99.90
52387;DHT22;38317;53.084;6.960;2022-10-16T11:26:35;17.40;99.90
52387;DHT22;38317;53.084;6.960;2022-10-16T11:29:04;17.50;99.90
52387;DHT22;38317;53.084;6.960;2022-10-16T11:31:40;17.60;99.90
52387;DHT22;38317;53.084;6.960;2022-10-16T11:39:30;17.60;99.90
52387;DHT22;38317;53.084;6.960;2022-10-16T11:42:05;17.50;99.90
52387;DHT22;38317;53.084;6.960;2022-10-16T11:50:28;17.50;99.90
52387;DHT22;38317;53.084;6.960;2022-10-16T11:55:42;17.80;99.90
52387;DHT22;38317;53.084;6.960;2022-10-16T12:00:55;17.70;99.90
52387;DHT22;38317;53.084;6.960;2022-10-16T12:08:42;17.70;99.90
52387;DHT22;38317;53.084;6.960;2022-10-16T12:11:23;17.70;99.90
52387;DHT22;38317;53.084;6.960;2022-10-16T12:13:49;17.90;99.90
52387;DHT22;38317;53.084;6.960;2022-10-16T12:18:43;18.20;99.90
52387;DHT22;38317;53.084;6.960;2022-10-16T12:21:10;18.20;99.90
52387;DHT22;38317;53.084;6.960;2022-10-16T12:23:54;18.20;99.90
52387;DHT22;38317;53.084;6.960;2022-10-16T12:26:27;18.30;99.90
52387;DHT22;38317;53.084;6.960;2022-10-16T12:28:55;18.30;99.90
52387;DHT22;38317;53.084;6.960;2022-10-16T12:31:21;18.30;99.90
52387;DHT22;38317;53.084;6.960;2022-10-16T12:33:59;18.40;99.90
52387;DHT22;38317;53.084;6.960;2022-10-16T12:36:35;18.30;99.90
52387;DHT22;38317;53.084;6.960;2022-10-16T12:39:01;18.30;99.90
52387;DHT22;38317;53.084;6.960;2022-10-16T12:41:28;18.20;99.90
52387;DHT22;38317;53.084;6.960;2022-10-16T12:43:55;18.10;99.90
52387;DHT22;38317;53.084;6.960;2022-10-16T12:46:37;18.10;99.90
52387;DHT22;38317;53.084;6.960;2022-10-16T12:51:38;18.10;99.90
52387;DHT22;38317;53.084;6.960;2022-10-16T12:59:46;17.70;99.90
52387;DHT22;38317;53.084;6.960;2022-10-16T13:13:36;17.50;99.90
52387;DHT22;38317;53.084;6.960;2022-10-16T13:19:38;17.50;99.90
52387;DHT22;38317;53.084;6.960;2022-10-16T13:22:24;17.60;99.90
52387;DHT22;38317;53.084;6.960;2022-10-16T13:27:54;17.80;99.90
52387;DHT22;38317;53.084;6.960;2022-10-16T13:30:23;17.90;99.90
52387;DHT22;38317;53.084;6.960;2022-10-16T13:32:53;18.00;99.90
52387;DHT22;38317;53.084;6.960;2022-10-16T13:35:26;18.10;99.90
52387;DHT22;38317;53.084;6.960;2022-10-16T13:38:13;18.10;99.90
52387;DHT22;38317;53.084;6.960;2022-10-16T13:43:28;18.20;99.90
52387;DHT22;38317;53.084;6.960;2022-10-16T13:46:15;18.20;99.90
52387;DHT22;38317;53.084;6.960;2022-10-16T13:48:41;18.10;99.90
52387;DHT22;38317;53.084;6.960;2022-10-16T13:51:16;18.10;99.90
52387;DHT22;38317;53.084;6.960;2022-10-16T13:53:43;18.10;99.90
52387;DHT22;38317;53.084;6.960;2022-10-16T13:56:26;18.20;99.90
52387;DHT22;38317;53.084;6.960;2022-10-16T13:59:04;18.10;99.90
52387;DHT22;38317;53.084;6.960;2022-10-16T14:01:42;18.10;99.90
52387;DHT22;38317;53.084;6.960;2022-10-16T14:04:13;18.10;99.90
52387;DHT22;38317;53.084;6.960;2022-10-16T14:06:48;18.00;99.90
52387;DHT22;38317;53.084;6.960;2022-10-16T14:09:25;17.90;99.90
52387;DHT22;38317;53.084;6.960;2022-10-16T14:12:01;17.90;99.90
52387;DHT22;38317;53.084;6.960;2022-10-16T14:14:41;17.80;99.90
52387;DHT22;38317;53.084;6.960;2022-10-16T14:17:24;17.80;99.90
52387;DHT22;38317;53.084;6.960;2022-10-16T14:19:54;17.70;99.90
52387;DHT22;38317;53.084;6.960;2022-10-16T14:22:36;17.70;99.90
52387;DHT22;38317;53.084;6.960;2022-10-16T14:27:56;17.70;99.90
52387;DHT22;38317;53.084;6.960;2022-10-16T14:30:24;17.60;99.90
52387;DHT22;38317;53.084;6.960;2022-10-16T14:32:58;17.60;99.90
52387;DHT22;38317;53.084;6.960;2022-10-16T14:35:33;17.50;99.90
52387;DHT22;38317;53.084;6.960;2022-10-16T14:38:01;17.40;99.90
52387;DHT22;38317;53.084;6.960;2022-10-16T14:40:30;17.40;99.90
52387;DHT22;38317;53.084;6.960;2022-10-16T14:42:57;17.20;99.90
52387;DHT22;38317;53.084;6.960;2022-10-16T14:45:34;17.10;99.90
52387;DHT22;38317;53.084;6.960;2022-10-16T14:48:05;17.00;99.90
52387;DHT22;38317;53.084;6.960;2022-10-16T14:50:31;16.90;99.90
52387;DHT22;38317;53.084;6.960;2022-10-16T14:52:58;16.90;99.90
52387;DHT22;38317;53.084;6.960;2022-10-16T14:55:25;16.90;99.90
52387;DHT22;38317;53.084;6.960;2022-10-16T14:57:51;16.80;99.90
52387;DHT22;38317;53.084;6.960;2022-10-16T15:00:22;16.80;99.90
52387;DHT22;38317;53.084;6.960;2022-10-16T15:02:49;16.80;99.90
52387;DHT22;38317;53.084;6.960;2022-10-16T15:05:24;16.70;99.90
52387;DHT22;38317;53.084;6.960;2022-10-16T15:07:52;16.70;99.90
52387;DHT22;38317;53.084;6.960;2022-10-16T15:10:20;16.70;99.90
52387;DHT22;38317;53.084;6.960;2022-10-16T15:12:47;16.60;99.90
52387;DHT22;38317;53.084;6.960;2022-10-16T15:17:52;16.50;99.90
52387;DHT22;38317;53.084;6.960;2022-10-16T15:20:19;16.50;99.90
52387;DHT22;38317;53.084;6.960;2022-10-16T15:22:45;16.40;99.90
52387;DHT22;38317;53.084;6.960;2022-10-16T15:25:37;16.40;99.90
52387;DHT22;38317;53.084;6.960;2022-10-16T15:28:05;16.40;99.90
52387;DHT22;38317;53.084;6.960;2022-10-16T15:30:32;16.30;99.90
52387;DHT22;38317;53.084;6.960;2022-10-16T15:32:58;16.30;99.90
52387;DHT22;38317;53.084;6.960;2022-10-16T15:35:24;16.20;99.90
52387;DHT22;38317;53.084;6.960;2022-10-16T15:37:50;16.20;99.90
52387;DHT22;38317;53.084;6.960;2022-10-16T15:40:17;16.20;99.90
52387;DHT22;38317;53.084;6.960;2022-10-16T15:42:43;16.10;99.90
52387;DHT22;38317;53.084;6.960;2022-10-16T15:45:10;16.10;99.90
52387;DHT22;38317;53.084;6.960;2022-10-16T15:47:37;16.10;99.90
52387;DHT22;38317;53.084;6.960;2022-10-16T15:50:03;16.00;99.90
52387;DHT22;38317;53.084;6.960;2022-10-16T15:52:29;16.00;99.90
52387;DHT22;38317;53.084;6.960;2022-10-16T15:54:57;15.90;99.90
52387;DHT22;38317;53.084;6.960;2022-10-16T15:57:23;15.90;99.90
52387;DHT22;38317;53.084;6.960;2022-10-16T15:59:50;15.80;99.90
52387;DHT22;38317;53.084;6.960;2022-10-16T16:02:16;15.70;99.90
52387;DHT22;38317;53.084;6.960;2022-10-16T16:04:42;15.70;99.90
52387;DHT22;38317;53.084;6.960;2022-10-16T16:07:07;15.60;99.90
52387;DHT22;38317;53.084;6.960;2022-10-16T16:09:33;15.50;99.90
52387;DHT22;38317;53.084;6.960;2022-10-16T16:11:59;15.40;99.90
52387;DHT22;38317;53.084;6.960;2022-10-16T16:14:27;15.40;99.90
52387;DHT22;38317;53.084;6.960;2022-10-16T16:16:56;15.30;99.90
52387;DHT22;38317;53.084;6.960;2022-10-16T16:19:22;15.30;99.90
52387;DHT22;38317;53.084;6.960;2022-10-16T16:21:48;15.30;99.90
52387;DHT22;38317;53.084;6.960;2022-10-16T16:24:14;15.20;99.90
52387;DHT22;38317;53.084;6.960;2022-10-16T16:26:40;15.10;99.90
52387;DHT22;38317;53.084;6.960;2022-10-16T16:29:14;15.10;99.90
52387;DHT22;38317;53.084;6.960;2022-10-16T16:31:41;15.00;99.90
52387;DHT22;38317;53.084;6.960;2022-10-16T16:34:07;15.00;99.90
52387;DHT22;38317;53.084;6.960;2022-10-16T16:36:34;14.90;99.90
52387;DHT22;38317;53.084;6.960;2022-10-16T16:39:00;14.80;99.90
52387;DHT22;38317;53.084;6.960;2022-10-16T16:41:28;14.70;99.90
52387;DHT22;38317;53.084;6.960;2022-10-16T16:43:55;14.60;99.90
52387;DHT22;38317;53.084;6.960;2022-10-16T16:46:26;14.60;99.90
52387;DHT22;38317;53.084;6.960;2022-10-16T16:48:52;14.50;99.90
52387;DHT22;38317;53.084;6.960;2022-10-16T16:51:21;14.40;99.90
52387;DHT22;38317;53.084;6.960;2022-10-16T16:53:51;14.40;99.90
52387;DHT22;38317;53.084;6.960;2022-10-16T16:56:18;14.30;99.90
52387;DHT22;38317;53.084;6.960;2022-10-16T16:58:52;14.30;99.90
52387;DHT22;38317;53.084;6.960;2022-10-16T17:01:19;14.20;99.90
52387;DHT22;38317;53.084;6.960;2022-10-16T17:03:45;14.20;99.90
52387;DHT22;38317;53.084;6.960;2022-10-16T17:06:12;14.10;99.90
52387;DHT22;38317;53.084;6.960;2022-10-16T17:08:38;14.10;99.90
52387;DHT22;38317;53.084;6.960;2022-10-16T17:11:05;14.00;99.90
52387;DHT22;38317;53.084;6.960;2022-10-16T17:13:33;14.00;99.90
52387;DHT22;38317;53.084;6.960;2022-10-16T17:16:02;13.90;99.90
52387;DHT22;38317;53.084;6.960;2022-10-16T17:18:28;13.90;99.90
52387;DHT22;38317;53.084;6.960;2022-10-16T17:20:54;13.80;99.90
52387;DHT22;38317;53.084;6.960;2022-10-16T17:23:20;13.70;99.90
52387;DHT22;38317;53.084;6.960;2022-10-16T17:25:46;13.60;99.90
52387;DHT22;38317;53.084;6.960;2022-10-16T17:28:13;13.60;99.90
52387;DHT22;38317;53.084;6.960;2022-10-16T17:30:40;13.50;99.90
52387;DHT22;38317;53.084;6.960;2022-10-16T17:33:07;13.50;99.90
52387;DHT22;38317;53.084;6.960;2022-10-16T17:35:41;13.40;99.90
52387;DHT22;38317;53.084;6.960;2022-10-16T17:38:08;13.40;99.90
52387;DHT22;38317;53.084;6.960;2022-10-16T17:40:34;13.30;99.90
52387;DHT22;38317;53.084;6.960;2022-10-16T17:43:00;13.30;99.90
52387;DHT22;38317;53.084;6.960;2022-10-16T17:45:26;13.20;99.90
52387;DHT22;38317;53.084;6.960;2022-10-16T17:47:52;13.20;99.90
52387;DHT22;38317;53.084;6.960;2022-10-16T17:50:18;13.10;99.90
52387;DHT22;38317;53.084;6.960;2022-10-16T17:52:44;13.10;99.90
52387;DHT22;38317;53.084;6.960;2022-10-16T17:55:10;13.10;99.90